sensor_id;sensor_type;location;lat;lon;timestamp;P1;durP1;ratioP1;P2;durP2;ratioP2
37945;SDS011;23769;52.478;13.448;2024-03-08T00:00:36;36.05;;;17.45;;
37945;SDS011;23769;52.478;13.448;2024-03-08T00:03:05;36.88;;;17.42;;
37945;SDS011;23769;52.478;13.448;2024-03-08T00:05:32;34.90;;;16.92;;
37945;SDS011;23769;52.478;13.448;2024-03-08T00:08:00;32.55;;;16.42;;
37945;SDS011;23769;52.478;13.448;2024-03-08T00:10:28;36.63;;;17.30;;
37945;SDS011;23769;52.478;13.448;2024-03-08T00:12:56;36.35;;;15.90;;
37945;SDS011;23769;52.478;13.448;2024-03-08T00:15:23;35.88;;;16.95;;
37945;SDS011;23769;52.478;13.448;2024-03-08T00:17:51;33.75;;;16.02;;
37945;SDS011;23769;52.478;13.448;2024-03-08T00:20:18;39.15;;;16.83;;
37945;SDS011;23769;52.478;13.448;2024-03-08T00:22:46;35.70;;;16.67;;
37945;SDS011;23769;52.478;13.448;2024-03-08T00:25:13;34.80;;;16.77;;
37945;SDS011;23769;52.478;13.448;2024-03-08T00:27:42;38.03;;;18.38;;
37945;SDS011;23769;52.478;13.448;2024-03-08T00:30:10;31.10;;;15.88;;
37945;SDS011;23769;52.478;13.448;2024-03-08T00:32:38;37.17;;;16.98;;
37945;SDS011;23769;52.478;13.448;2024-03-08T00:35:06;37.92;;;17.17;;
37945;SDS011;23769;52.478;13.448;2024-03-08T00:37:33;35.28;;;16.17;;
37945;SDS011;23769;52.478;13.448;2024-03-08T00:40:00;41.33;;;17.88;;
37945;SDS011;23769;52.478;13.448;2024-03-08T00:42:28;35.58;;;17.65;;
37945;SDS011;23769;52.478;13.448;2024-03-08T00:44:56;32.47;;;15.85;;
37945;SDS011;23769;52.478;13.448;2024-03-08T00:47:23;35.95;;;17.65;;
37945;SDS011;23769;52.478;13.448;2024-03-08T00:49:51;37.20;;;18.23;;
37945;SDS011;23769;52.478;13.448;2024-03-08T00:52:21;35.65;;;16.30;;
37945;SDS011;23769;52.478;13.448;2024-03-08T00:54:49;29.48;;;15.20;;
37945;SDS011;23769;52.478;13.448;2024-03-08T00:57:16;34.08;;;16.88;;
37945;SDS011;23769;52.478;13.448;2024-03-08T00:59:44;35.53;;;16.85;;
37945;SDS011;23769;52.478;13.448;2024-03-08T01:02:12;37.10;;;17.65;;
37945;SDS011;23769;52.478;13.448;2024-03-08T01:04:39;37.40;;;16.80;;
37945;SDS011;23769;52.478;13.448;2024-03-08T01:07:07;34.15;;;17.08;;
37945;SDS011;23769;52.478;13.448;2024-03-08T01:09:34;43.90;;;19.02;;
37945;SDS011;23769;52.478;13.448;2024-03-08T01:12:01;36.17;;;17.52;;
37945;SDS011;23769;52.478;13.448;2024-03-08T01:14:28;40.00;;;18.02;;
37945;SDS011;23769;52.478;13.448;2024-03-08T01:16:56;36.85;;;17.90;;
37945;SDS011;23769;52.478;13.448;2024-03-08T01:19:25;40.78;;;18.58;;
37945;SDS011;23769;52.478;13.448;2024-03-08T01:21:52;36.03;;;17.55;;
37945;SDS011;23769;52.478;13.448;2024-03-08T01:24:20;41.60;;;17.95;;
37945;SDS011;23769;52.478;13.448;2024-03-08T01:26:48;41.50;;;18.27;;
37945;SDS011;23769;52.478;13.448;2024-03-08T01:29:15;40.05;;;18.80;;
37945;SDS011;23769;52.478;13.448;2024-03-08T01:31:42;47.15;;;19.63;;
37945;SDS011;23769;52.478;13.448;2024-03-08T01:34:09;41.60;;;20.70;;
37945;SDS011;23769;52.478;13.448;2024-03-08T01:36:38;42.55;;;20.30;;
37945;SDS011;23769;52.478;13.448;2024-03-08T01:39:05;38.22;;;19.30;;
37945;SDS011;23769;52.478;13.448;2024-03-08T01:41:33;38.88;;;18.90;;
37945;SDS011;23769;52.478;13.448;2024-03-08T01:44:00;40.53;;;18.60;;
37945;SDS011;23769;52.478;13.448;2024-03-08T01:46:28;39.58;;;17.90;;
37945;SDS011;23769;52.478;13.448;2024-03-08T01:48:56;37.40;;;17.20;;
37945;SDS011;23769;52.478;13.448;2024-03-08T01:51:23;41.63;;;18.23;;
37945;SDS011;23769;52.478;13.448;2024-03-08T01:53:52;38.33;;;17.33;;
37945;SDS011;23769;52.478;13.448;2024-03-08T01:56:20;39.83;;;18.15;;
37945;SDS011;23769;52.478;13.448;2024-03-08T01:58:47;39.63;;;17.02;;
37945;SDS011;23769;52.478;13.448;2024-03-08T02:01:15;38.92;;;17.98;;
37945;SDS011;23769;52.478;13.448;2024-03-08T02:03:44;41.50;;;17.75;;
37945;SDS011;23769;52.478;13.448;2024-03-08T02:06:12;31.38;;;16.17;;
37945;SDS011;23769;52.478;13.448;2024-03-08T02:08:41;47.75;;;18.23;;
37945;SDS011;23769;52.478;13.448;2024-03-08T02:11:11;36.95;;;16.13;;
37945;SDS011;23769;52.478;13.448;2024-03-08T02:13:39;44.08;;;18.90;;
37945;SDS011;23769;52.478;13.448;2024-03-08T02:16:06;41.05;;;18.65;;
37945;SDS011;23769;52.478;13.448;2024-03-08T02:18:34;37.75;;;19.30;;
37945;SDS011;23769;52.478;13.448;2024-03-08T02:21:03;39.92;;;17.40;;
37945;SDS011;23769;52.478;13.448;2024-03-08T02:23:31;38.20;;;17.73;;
37945;SDS011;23769;52.478;13.448;2024-03-08T02:25:59;38.30;;;16.92;;
37945;SDS011;23769;52.478;13.448;2024-03-08T02:28:27;34.75;;;16.95;;
37945;SDS011;23769;52.478;13.448;2024-03-08T02:30:55;35.67;;;16.80;;
37945;SDS011;23769;52.478;13.448;2024-03-08T02:33:22;38.03;;;17.55;;
37945;SDS011;23769;52.478;13.448;2024-03-08T02:35:53;36.58;;;16.73;;
37945;SDS011;23769;52.478;13.448;2024-03-08T02:38:22;36.10;;;16.60;;
37945;SDS011;23769;52.478;13.448;2024-03-08T02:40:51;42.08;;;18.20;;
37945;SDS011;23769;52.478;13.448;2024-03-08T02:43:19;43.13;;;18.23;;
37945;SDS011;23769;52.478;13.448;2024-03-08T02:45:50;36.42;;;17.65;;
37945;SDS011;23769;52.478;13.448;2024-03-08T02:48:30;37.92;;;17.23;;
37945;SDS011;23769;52.478;13.448;2024-03-08T02:50:58;40.05;;;16.90;;
37945;SDS011;23769;52.478;13.448;2024-03-08T02:53:31;37.58;;;17.25;;
37945;SDS011;23769;52.478;13.448;2024-03-08T02:56:00;41.05;;;18.15;;
37945;SDS011;23769;52.478;13.448;2024-03-08T02:58:28;41.35;;;18.02;;
37945;SDS011;23769;52.478;13.448;2024-03-08T03:00:55;40.05;;;18.13;;
37945;SDS011;23769;52.478;13.448;2024-03-08T03:03:23;41.45;;;19.42;;
37945;SDS011;23769;52.478;13.448;2024-03-08T03:05:52;43.70;;;19.17;;
37945;SDS011;23769;52.478;13.448;2024-03-08T03:08:20;46.92;;;20.45;;
37945;SDS011;23769;52.478;13.448;2024-03-08T03:10:50;39.67;;;19.67;;
37945;SDS011;23769;52.478;13.448;2024-03-08T03:13:18;42.17;;;19.15;;
37945;SDS011;23769;52.478;13.448;2024-03-08T03:15:46;48.25;;;20.67;;
37945;SDS011;23769;52.478;13.448;2024-03-08T03:18:13;41.63;;;19.42;;
37945;SDS011;23769;52.478;13.448;2024-03-08T03:20:41;40.70;;;18.65;;
37945;SDS011;23769;52.478;13.448;2024-03-08T03:23:09;46.25;;;21.10;;
37945;SDS011;23769;52.478;13.448;2024-03-08T03:25:39;43.60;;;19.50;;
37945;SDS011;23769;52.478;13.448;2024-03-08T03:28:09;40.25;;;17.90;;
37945;SDS011;23769;52.478;13.448;2024-03-08T03:30:39;46.13;;;20.35;;
37945;SDS011;23769;52.478;13.448;2024-03-08T03:33:07;45.28;;;20.73;;
37945;SDS011;23769;52.478;13.448;2024-03-08T03:35:35;42.47;;;19.38;;
37945;SDS011;23769;52.478;13.448;2024-03-08T03:38:02;48.40;;;20.42;;
37945;SDS011;23769;52.478;13.448;2024-03-08T03:40:32;45.30;;;20.40;;
37945;SDS011;23769;52.478;13.448;2024-03-08T03:43:00;40.70;;;18.42;;
37945;SDS011;23769;52.478;13.448;2024-03-08T03:45:29;43.92;;;20.15;;
37945;SDS011;23769;52.478;13.448;2024-03-08T03:48:01;44.83;;;19.70;;
37945;SDS011;23769;52.478;13.448;2024-03-08T03:50:28;48.00;;;20.77;;
37945;SDS011;23769;52.478;13.448;2024-03-08T03:52:56;45.10;;;19.92;;
37945;SDS011;23769;52.478;13.448;2024-03-08T03:55:23;54.20;;;23.20;;
37945;SDS011;23769;52.478;13.448;2024-03-08T03:57:52;42.58;;;19.48;;
37945;SDS011;23769;52.478;13.448;2024-03-08T04:00:20;45.10;;;21.23;;
37945;SDS011;23769;52.478;13.448;2024-03-08T04:02:49;49.10;;;22.38;;
37945;SDS011;23769;52.478;13.448;2024-03-08T04:05:16;47.70;;;22.42;;
37945;SDS011;23769;52.478;13.448;2024-03-08T04:07:44;46.00;;;22.70;;
37945;SDS011;23769;52.478;13.448;2024-03-08T04:10:11;41.78;;;19.50;;
37945;SDS011;23769;52.478;13.448;2024-03-08T04:12:39;45.88;;;21.50;;
37945;SDS011;23769;52.478;13.448;2024-03-08T04:15:07;45.25;;;21.67;;
37945;SDS011;23769;52.478;13.448;2024-03-08T04:17:36;47.25;;;20.92;;
37945;SDS011;23769;52.478;13.448;2024-03-08T04:20:05;49.95;;;20.42;;
37945;SDS011;23769;52.478;13.448;2024-03-08T04:22:35;53.35;;;23.42;;
37945;SDS011;23769;52.478;13.448;2024-03-08T04:25:03;49.72;;;21.77;;
37945;SDS011;23769;52.478;13.448;2024-03-08T04:27:31;44.17;;;20.83;;
37945;SDS011;23769;52.478;13.448;2024-03-08T04:29:59;44.75;;;19.95;;
37945;SDS011;23769;52.478;13.448;2024-03-08T04:32:27;50.40;;;23.23;;
37945;SDS011;23769;52.478;13.448;2024-03-08T04:34:55;48.67;;;23.40;;
37945;SDS011;23769;52.478;13.448;2024-03-08T04:37:25;49.20;;;21.45;;
37945;SDS011;23769;52.478;13.448;2024-03-08T04:39:54;49.13;;;21.98;;
37945;SDS011;23769;52.478;13.448;2024-03-08T04:42:22;51.28;;;21.52;;
37945;SDS011;23769;52.478;13.448;2024-03-08T04:44:50;50.50;;;23.30;;
37945;SDS011;23769;52.478;13.448;2024-03-08T04:47:18;50.22;;;23.48;;
37945;SDS011;23769;52.478;13.448;2024-03-08T04:49:46;46.38;;;21.23;;
37945;SDS011;23769;52.478;13.448;2024-03-08T04:52:14;47.92;;;21.65;;
37945;SDS011;23769;52.478;13.448;2024-03-08T04:54:43;54.88;;;23.45;;
37945;SDS011;23769;52.478;13.448;2024-03-08T04:57:11;48.78;;;22.73;;
37945;SDS011;23769;52.478;13.448;2024-03-08T04:59:38;56.50;;;22.58;;
37945;SDS011;23769;52.478;13.448;2024-03-08T05:02:06;52.05;;;23.65;;
37945;SDS011;23769;52.478;13.448;2024-03-08T05:04:33;52.92;;;24.10;;
37945;SDS011;23769;52.478;13.448;2024-03-08T05:07:01;56.95;;;25.65;;
37945;SDS011;23769;52.478;13.448;2024-03-08T05:09:29;55.42;;;23.63;;
37945;SDS011;23769;52.478;13.448;2024-03-08T05:11:59;47.35;;;21.23;;
37945;SDS011;23769;52.478;13.448;2024-03-08T05:14:27;54.33;;;22.45;;
37945;SDS011;23769;52.478;13.448;2024-03-08T05:16:54;55.13;;;23.45;;
37945;SDS011;23769;52.478;13.448;2024-03-08T05:19:22;52.75;;;23.73;;
37945;SDS011;23769;52.478;13.448;2024-03-08T05:21:50;53.33;;;24.05;;
37945;SDS011;23769;52.478;13.448;2024-03-08T05:24:18;53.63;;;23.73;;
37945;SDS011;23769;52.478;13.448;2024-03-08T05:26:45;52.25;;;22.95;;
37945;SDS011;23769;52.478;13.448;2024-03-08T05:29:15;60.08;;;24.83;;
37945;SDS011;23769;52.478;13.448;2024-03-08T05:31:45;55.25;;;25.75;;
37945;SDS011;23769;52.478;13.448;2024-03-08T05:34:14;53.30;;;24.05;;
37945;SDS011;23769;52.478;13.448;2024-03-08T05:36:41;61.75;;;26.05;;
37945;SDS011;23769;52.478;13.448;2024-03-08T05:39:10;51.40;;;24.20;;
37945;SDS011;23769;52.478;13.448;2024-03-08T05:41:38;59.00;;;25.73;;
37945;SDS011;23769;52.478;13.448;2024-03-08T05:44:05;56.03;;;24.42;;
37945;SDS011;23769;52.478;13.448;2024-03-08T05:46:34;58.42;;;25.42;;
37945;SDS011;23769;52.478;13.448;2024-03-08T05:49:01;63.15;;;25.70;;
37945;SDS011;23769;52.478;13.448;2024-03-08T05:51:30;55.75;;;25.85;;
37945;SDS011;23769;52.478;13.448;2024-03-08T05:53:59;56.33;;;23.15;;
37945;SDS011;23769;52.478;13.448;2024-03-08T05:56:27;61.70;;;25.95;;
37945;SDS011;23769;52.478;13.448;2024-03-08T05:58:55;54.15;;;24.88;;
37945;SDS011;23769;52.478;13.448;2024-03-08T06:01:23;54.00;;;25.20;;
37945;SDS011;23769;52.478;13.448;2024-03-08T06:03:52;47.75;;;22.88;;
37945;SDS011;23769;52.478;13.448;2024-03-08T06:06:21;57.08;;;24.85;;
37945;SDS011;23769;52.478;13.448;2024-03-08T06:08:48;51.15;;;23.08;;
37945;SDS011;23769;52.478;13.448;2024-03-08T06:11:16;48.38;;;23.58;;
37945;SDS011;23769;52.478;13.448;2024-03-08T06:13:44;50.60;;;24.30;;
37945;SDS011;23769;52.478;13.448;2024-03-08T06:16:12;49.72;;;24.52;;
37945;SDS011;23769;52.478;13.448;2024-03-08T06:18:39;51.80;;;24.58;;
37945;SDS011;23769;52.478;13.448;2024-03-08T06:21:09;51.65;;;23.98;;
37945;SDS011;23769;52.478;13.448;2024-03-08T06:23:38;49.80;;;23.23;;
37945;SDS011;23769;52.478;13.448;2024-03-08T06:26:05;48.70;;;22.63;;
37945;SDS011;23769;52.478;13.448;2024-03-08T06:28:33;50.78;;;22.60;;
37945;SDS011;23769;52.478;13.448;2024-03-08T06:31:01;50.70;;;22.95;;
37945;SDS011;23769;52.478;13.448;2024-03-08T06:33:28;46.35;;;21.92;;
37945;SDS011;23769;52.478;13.448;2024-03-08T06:36:05;54.65;;;23.00;;
37945;SDS011;23769;52.478;13.448;2024-03-08T06:38:34;47.00;;;22.98;;
37945;SDS011;23769;52.478;13.448;2024-03-08T06:41:07;51.17;;;23.95;;
37945;SDS011;23769;52.478;13.448;2024-03-08T06:43:40;45.10;;;23.10;;
37945;SDS011;23769;52.478;13.448;2024-03-08T06:46:07;49.03;;;24.23;;
37945;SDS011;23769;52.478;13.448;2024-03-08T06:48:37;48.47;;;22.65;;
37945;SDS011;23769;52.478;13.448;2024-03-08T06:51:05;69.97;;;30.50;;
37945;SDS011;23769;52.478;13.448;2024-03-08T06:53:32;47.58;;;23.00;;
37945;SDS011;23769;52.478;13.448;2024-03-08T06:56:02;47.15;;;23.83;;
37945;SDS011;23769;52.478;13.448;2024-03-08T06:58:29;46.28;;;22.02;;
37945;SDS011;23769;52.478;13.448;2024-03-08T07:00:58;51.10;;;21.50;;
37945;SDS011;23769;52.478;13.448;2024-03-08T07:03:26;48.08;;;22.58;;
37945;SDS011;23769;52.478;13.448;2024-03-08T07:05:54;43.85;;;23.33;;
37945;SDS011;23769;52.478;13.448;2024-03-08T07:08:23;43.17;;;22.95;;
37945;SDS011;23769;52.478;13.448;2024-03-08T07:10:52;46.78;;;23.48;;
37945;SDS011;23769;52.478;13.448;2024-03-08T07:13:21;47.90;;;22.63;;
37945;SDS011;23769;52.478;13.448;2024-03-08T07:15:48;48.00;;;22.70;;
37945;SDS011;23769;52.478;13.448;2024-03-08T07:18:17;45.65;;;22.38;;
37945;SDS011;23769;52.478;13.448;2024-03-08T07:20:44;48.75;;;21.52;;
37945;SDS011;23769;52.478;13.448;2024-03-08T07:23:11;47.67;;;22.52;;
37945;SDS011;23769;52.478;13.448;2024-03-08T07:25:59;44.80;;;20.58;;
37945;SDS011;23769;52.478;13.448;2024-03-08T07:28:28;46.35;;;21.88;;
37945;SDS011;23769;52.478;13.448;2024-03-08T07:30:56;43.20;;;22.05;;
37945;SDS011;23769;52.478;13.448;2024-03-08T07:33:34;44.80;;;21.63;;
37945;SDS011;23769;52.478;13.448;2024-03-08T07:36:03;47.58;;;21.90;;
37945;SDS011;23769;52.478;13.448;2024-03-08T07:38:31;55.25;;;26.20;;
37945;SDS011;23769;52.478;13.448;2024-03-08T07:40:58;43.97;;;20.83;;
37945;SDS011;23769;52.478;13.448;2024-03-08T07:43:25;40.78;;;21.00;;
37945;SDS011;23769;52.478;13.448;2024-03-08T07:45:54;43.72;;;21.80;;
37945;SDS011;23769;52.478;13.448;2024-03-08T07:48:22;40.75;;;21.65;;
37945;SDS011;23769;52.478;13.448;2024-03-08T07:50:49;43.15;;;20.75;;
37945;SDS011;23769;52.478;13.448;2024-03-08T07:53:16;70.57;;;33.15;;
37945;SDS011;23769;52.478;13.448;2024-03-08T07:55:44;41.47;;;20.85;;
37945;SDS011;23769;52.478;13.448;2024-03-08T07:58:11;42.53;;;19.90;;
37945;SDS011;23769;52.478;13.448;2024-03-08T08:00:38;43.97;;;22.25;;
37945;SDS011;23769;52.478;13.448;2024-03-08T08:03:09;45.55;;;21.63;;
37945;SDS011;23769;52.478;13.448;2024-03-08T08:05:37;45.75;;;21.15;;
37945;SDS011;23769;52.478;13.448;2024-03-08T08:08:05;41.55;;;21.02;;
37945;SDS011;23769;52.478;13.448;2024-03-08T08:10:32;40.30;;;19.05;;
37945;SDS011;23769;52.478;13.448;2024-03-08T08:12:59;40.42;;;19.42;;
37945;SDS011;23769;52.478;13.448;2024-03-08T08:15:29;41.28;;;20.58;;
37945;SDS011;23769;52.478;13.448;2024-03-08T08:17:56;41.33;;;19.95;;
37945;SDS011;23769;52.478;13.448;2024-03-08T08:20:25;45.08;;;21.00;;
37945;SDS011;23769;52.478;13.448;2024-03-08T08:22:54;39.17;;;20.83;;
37945;SDS011;23769;52.478;13.448;2024-03-08T08:25:21;39.45;;;20.02;;
37945;SDS011;23769;52.478;13.448;2024-03-08T08:27:49;40.67;;;20.90;;
37945;SDS011;23769;52.478;13.448;2024-03-08T08:30:17;34.70;;;18.98;;
37945;SDS011;23769;52.478;13.448;2024-03-08T08:32:45;37.88;;;18.50;;
37945;SDS011;23769;52.478;13.448;2024-03-08T08:35:13;40.60;;;21.02;;
37945;SDS011;23769;52.478;13.448;2024-03-08T08:37:42;40.08;;;21.00;;
37945;SDS011;23769;52.478;13.448;2024-03-08T08:40:10;38.75;;;19.98;;
37945;SDS011;23769;52.478;13.448;2024-03-08T08:42:39;36.38;;;18.70;;
37945;SDS011;23769;52.478;13.448;2024-03-08T08:45:07;39.70;;;19.95;;
37945;SDS011;23769;52.478;13.448;2024-03-08T08:47:34;37.03;;;19.33;;
37945;SDS011;23769;52.478;13.448;2024-03-08T08:50:02;34.83;;;17.42;;
37945;SDS011;23769;52.478;13.448;2024-03-08T08:52:30;37.38;;;18.90;;
37945;SDS011;23769;52.478;13.448;2024-03-08T08:54:59;35.67;;;19.00;;
37945;SDS011;23769;52.478;13.448;2024-03-08T08:57:28;37.25;;;19.75;;
37945;SDS011;23769;52.478;13.448;2024-03-08T08:59:58;38.90;;;19.42;;
37945;SDS011;23769;52.478;13.448;2024-03-08T09:02:25;35.13;;;18.23;;
37945;SDS011;23769;52.478;13.448;2024-03-08T09:04:52;34.22;;;17.40;;
37945;SDS011;23769;52.478;13.448;2024-03-08T09:07:19;35.13;;;17.83;;
37945;SDS011;23769;52.478;13.448;2024-03-08T09:09:47;38.13;;;19.20;;
37945;SDS011;23769;52.478;13.448;2024-03-08T09:12:15;38.08;;;19.05;;
37945;SDS011;23769;52.478;13.448;2024-03-08T09:14:43;33.92;;;17.60;;
37945;SDS011;23769;52.478;13.448;2024-03-08T09:17:10;31.58;;;17.70;;
37945;SDS011;23769;52.478;13.448;2024-03-08T09:19:37;31.73;;;17.67;;
37945;SDS011;23769;52.478;13.448;2024-03-08T09:22:04;35.80;;;18.48;;
37945;SDS011;23769;52.478;13.448;2024-03-08T09:24:32;34.60;;;17.45;;
37945;SDS011;23769;52.478;13.448;2024-03-08T09:26:59;36.40;;;18.85;;
37945;SDS011;23769;52.478;13.448;2024-03-08T09:29:27;35.78;;;17.75;;
37945;SDS011;23769;52.478;13.448;2024-03-08T09:31:55;34.42;;;18.10;;
37945;SDS011;23769;52.478;13.448;2024-03-08T09:34:22;38.75;;;18.83;;
37945;SDS011;23769;52.478;13.448;2024-03-08T09:36:49;34.72;;;18.05;;
37945;SDS011;23769;52.478;13.448;2024-03-08T09:39:17;33.25;;;15.95;;
37945;SDS011;23769;52.478;13.448;2024-03-08T09:41:45;31.40;;;16.40;;
37945;SDS011;23769;52.478;13.448;2024-03-08T09:44:14;35.13;;;18.35;;
37945;SDS011;23769;52.478;13.448;2024-03-08T09:46:42;30.40;;;16.95;;
37945;SDS011;23769;52.478;13.448;2024-03-08T09:49:12;31.77;;;16.33;;
37945;SDS011;23769;52.478;13.448;2024-03-08T09:51:39;34.78;;;17.17;;
37945;SDS011;23769;52.478;13.448;2024-03-08T09:54:07;32.15;;;16.83;;
37945;SDS011;23769;52.478;13.448;2024-03-08T09:56:35;28.33;;;16.02;;
37945;SDS011;23769;52.478;13.448;2024-03-08T09:59:03;28.45;;;15.70;;
37945;SDS011;23769;52.478;13.448;2024-03-08T10:01:49;33.40;;;16.08;;
37945;SDS011;23769;52.478;13.448;2024-03-08T10:04:17;27.30;;;14.40;;
37945;SDS011;23769;52.478;13.448;2024-03-08T10:06:45;28.95;;;14.15;;
37945;SDS011;23769;52.478;13.448;2024-03-08T10:09:12;28.63;;;14.93;;
37945;SDS011;23769;52.478;13.448;2024-03-08T10:11:41;25.45;;;14.23;;
37945;SDS011;23769;52.478;13.448;2024-03-08T10:14:08;26.80;;;14.63;;
37945;SDS011;23769;52.478;13.448;2024-03-08T10:16:36;30.92;;;15.50;;
37945;SDS011;23769;52.478;13.448;2024-03-08T10:19:04;25.90;;;13.75;;
37945;SDS011;23769;52.478;13.448;2024-03-08T10:21:32;24.90;;;13.75;;
37945;SDS011;23769;52.478;13.448;2024-03-08T10:23:59;26.27;;;14.15;;
37945;SDS011;23769;52.478;13.448;2024-03-08T10:26:26;25.30;;;13.88;;
37945;SDS011;23769;52.478;13.448;2024-03-08T10:28:53;23.90;;;12.82;;
37945;SDS011;23769;52.478;13.448;2024-03-08T10:31:22;23.95;;;13.32;;
37945;SDS011;23769;52.478;13.448;2024-03-08T10:33:50;27.15;;;13.50;;
37945;SDS011;23769;52.478;13.448;2024-03-08T10:36:19;20.77;;;11.77;;
37945;SDS011;23769;52.478;13.448;2024-03-08T10:38:46;24.23;;;12.88;;
37945;SDS011;23769;52.478;13.448;2024-03-08T10:41:13;22.33;;;12.68;;
37945;SDS011;23769;52.478;13.448;2024-03-08T10:43:50;25.95;;;12.90;;
37945;SDS011;23769;52.478;13.448;2024-03-08T10:46:21;25.27;;;12.43;;
37945;SDS011;23769;52.478;13.448;2024-03-08T10:48:57;25.75;;;13.93;;
37945;SDS011;23769;52.478;13.448;2024-03-08T10:51:29;23.60;;;12.82;;
37945;SDS011;23769;52.478;13.448;2024-03-08T10:53:57;21.65;;;13.02;;
37945;SDS011;23769;52.478;13.448;2024-03-08T10:56:28;24.35;;;13.13;;
37945;SDS011;23769;52.478;13.448;2024-03-08T10:58:55;25.17;;;13.30;;
37945;SDS011;23769;52.478;13.448;2024-03-08T11:01:22;24.98;;;13.45;;
37945;SDS011;23769;52.478;13.448;2024-03-08T11:03:51;20.58;;;11.80;;
37945;SDS011;23769;52.478;13.448;2024-03-08T11:06:22;26.13;;;14.13;;
37945;SDS011;23769;52.478;13.448;2024-03-08T11:08:50;23.50;;;12.88;;
37945;SDS011;23769;52.478;13.448;2024-03-08T11:11:23;21.95;;;12.98;;
37945;SDS011;23769;52.478;13.448;2024-03-08T11:13:55;24.85;;;13.57;;
37945;SDS011;23769;52.478;13.448;2024-03-08T11:16:39;24.05;;;13.50;;
37945;SDS011;23769;52.478;13.448;2024-03-08T11:19:23;25.55;;;13.95;;
37945;SDS011;23769;52.478;13.448;2024-03-08T11:21:57;24.00;;;13.32;;
37945;SDS011;23769;52.478;13.448;2024-03-08T11:24:25;27.90;;;13.90;;
37945;SDS011;23769;52.478;13.448;2024-03-08T11:26:55;26.77;;;12.88;;
37945;SDS011;23769;52.478;13.448;2024-03-08T11:29:35;25.50;;;13.75;;
37945;SDS011;23769;52.478;13.448;2024-03-08T11:32:05;23.98;;;12.57;;
37945;SDS011;23769;52.478;13.448;2024-03-08T11:34:32;25.80;;;13.57;;
37945;SDS011;23769;52.478;13.448;2024-03-08T11:36:59;25.98;;;14.10;;
37945;SDS011;23769;52.478;13.448;2024-03-08T11:39:28;25.13;;;14.45;;
37945;SDS011;23769;52.478;13.448;2024-03-08T11:41:55;22.75;;;11.50;;
37945;SDS011;23769;52.478;13.448;2024-03-08T11:44:26;21.27;;;11.13;;
37945;SDS011;23769;52.478;13.448;2024-03-08T11:46:56;24.05;;;12.25;;
37945;SDS011;23769;52.478;13.448;2024-03-08T11:49:28;22.17;;;12.27;;
37945;SDS011;23769;52.478;13.448;2024-03-08T11:51:59;19.70;;;11.32;;
37945;SDS011;23769;52.478;13.448;2024-03-08T11:54:27;17.33;;;10.30;;
37945;SDS011;23769;52.478;13.448;2024-03-08T11:56:55;19.02;;;11.52;;
37945;SDS011;23769;52.478;13.448;2024-03-08T11:59:25;21.40;;;11.15;;
37945;SDS011;23769;52.478;13.448;2024-03-08T12:01:59;23.25;;;10.88;;
37945;SDS011;23769;52.478;13.448;2024-03-08T12:04:27;20.05;;;11.43;;
37945;SDS011;23769;52.478;13.448;2024-03-08T12:06:56;26.83;;;13.93;;
37945;SDS011;23769;52.478;13.448;2024-03-08T12:09:23;29.02;;;14.05;;
37945;SDS011;23769;52.478;13.448;2024-03-08T12:11:52;25.80;;;14.75;;
37945;SDS011;23769;52.478;13.448;2024-03-08T12:14:19;22.70;;;13.23;;
37945;SDS011;23769;52.478;13.448;2024-03-08T12:16:47;24.30;;;14.32;;
37945;SDS011;23769;52.478;13.448;2024-03-08T12:19:14;27.70;;;15.20;;
37945;SDS011;23769;52.478;13.448;2024-03-08T12:21:42;23.92;;;15.13;;
37945;SDS011;23769;52.478;13.448;2024-03-08T12:24:14;26.58;;;13.63;;
37945;SDS011;23769;52.478;13.448;2024-03-08T12:26:44;25.63;;;14.35;;
37945;SDS011;23769;52.478;13.448;2024-03-08T12:29:21;22.92;;;13.60;;
37945;SDS011;23769;52.478;13.448;2024-03-08T12:31:50;25.85;;;14.15;;
37945;SDS011;23769;52.478;13.448;2024-03-08T12:34:17;28.27;;;14.98;;
37945;SDS011;23769;52.478;13.448;2024-03-08T12:36:45;22.25;;;13.32;;
37945;SDS011;23769;52.478;13.448;2024-03-08T12:39:13;23.52;;;13.65;;
37945;SDS011;23769;52.478;13.448;2024-03-08T12:41:41;28.00;;;15.50;;
37945;SDS011;23769;52.478;13.448;2024-03-08T12:44:08;23.02;;;13.38;;
37945;SDS011;23769;52.478;13.448;2024-03-08T12:46:38;22.98;;;13.38;;
37945;SDS011;23769;52.478;13.448;2024-03-08T12:49:09;22.08;;;12.93;;
37945;SDS011;23769;52.478;13.448;2024-03-08T12:51:37;26.80;;;12.98;;
37945;SDS011;23769;52.478;13.448;2024-03-08T12:54:04;24.90;;;14.02;;
37945;SDS011;23769;52.478;13.448;2024-03-08T12:56:34;26.90;;;13.85;;
37945;SDS011;23769;52.478;13.448;2024-03-08T12:59:02;24.65;;;12.98;;
37945;SDS011;23769;52.478;13.448;2024-03-08T13:01:30;24.08;;;12.98;;
37945;SDS011;23769;52.478;13.448;2024-03-08T13:03:59;26.48;;;13.30;;
37945;SDS011;23769;52.478;13.448;2024-03-08T13:06:27;22.92;;;12.75;;
37945;SDS011;23769;52.478;13.448;2024-03-08T13:08:56;24.25;;;14.30;;
37945;SDS011;23769;52.478;13.448;2024-03-08T13:11:24;22.63;;;13.93;;
37945;SDS011;23769;52.478;13.448;2024-03-08T13:13:52;26.45;;;14.27;;
37945;SDS011;23769;52.478;13.448;2024-03-08T13:16:19;27.25;;;13.60;;
37945;SDS011;23769;52.478;13.448;2024-03-08T13:18:46;21.92;;;13.57;;
37945;SDS011;23769;52.478;13.448;2024-03-08T13:21:16;22.08;;;13.70;;
37945;SDS011;23769;52.478;13.448;2024-03-08T13:23:48;23.42;;;13.88;;
37945;SDS011;23769;52.478;13.448;2024-03-08T13:26:18;23.10;;;13.60;;
37945;SDS011;23769;52.478;13.448;2024-03-08T13:28:45;20.42;;;12.32;;
37945;SDS011;23769;52.478;13.448;2024-03-08T13:31:13;28.33;;;13.80;;
37945;SDS011;23769;52.478;13.448;2024-03-08T13:33:40;23.63;;;14.38;;
37945;SDS011;23769;52.478;13.448;2024-03-08T13:36:07;23.38;;;13.65;;
37945;SDS011;23769;52.478;13.448;2024-03-08T13:38:41;24.90;;;13.63;;
37945;SDS011;23769;52.478;13.448;2024-03-08T13:41:09;22.13;;;12.73;;
37945;SDS011;23769;52.478;13.448;2024-03-08T13:43:39;22.05;;;12.55;;
37945;SDS011;23769;52.478;13.448;2024-03-08T13:46:07;21.23;;;11.82;;
37945;SDS011;23769;52.478;13.448;2024-03-08T13:48:35;20.48;;;12.00;;
37945;SDS011;23769;52.478;13.448;2024-03-08T13:51:03;21.02;;;12.07;;
37945;SDS011;23769;52.478;13.448;2024-03-08T13:53:32;19.92;;;11.80;;
37945;SDS011;23769;52.478;13.448;2024-03-08T13:56:01;20.30;;;11.55;;
37945;SDS011;23769;52.478;13.448;2024-03-08T13:58:28;24.52;;;11.57;;
37945;SDS011;23769;52.478;13.448;2024-03-08T14:00:56;20.85;;;10.90;;
37945;SDS011;23769;52.478;13.448;2024-03-08T14:03:23;18.83;;;10.65;;
37945;SDS011;23769;52.478;13.448;2024-03-08T14:05:51;21.52;;;11.05;;
37945;SDS011;23769;52.478;13.448;2024-03-08T14:08:20;20.10;;;11.43;;
37945;SDS011;23769;52.478;13.448;2024-03-08T14:10:47;21.63;;;12.00;;
37945;SDS011;23769;52.478;13.448;2024-03-08T14:13:17;20.58;;;11.32;;
37945;SDS011;23769;52.478;13.448;2024-03-08T14:15:46;21.05;;;11.73;;